createdAt,value
2023-09-04T00:02:21.791Z,3.15
2023-09-04T00:05:23.580Z,3.62
2023-09-04T00:08:26.313Z,3.42
2023-09-04T00:11:28.517Z,3.40
2023-09-04T00:14:30.272Z,3.78
2023-09-04T00:17:32.446Z,3.85
2023-09-04T00:20:34.150Z,3.95
2023-09-04T00:23:35.852Z,3.58
2023-09-04T00:26:37.574Z,3.90
2023-09-04T00:29:39.354Z,4.07
2023-09-04T00:32:41.230Z,3.60
2023-09-04T00:35:43.033Z,3.65
2023-09-04T00:38:44.677Z,3.83
2023-09-04T00:41:47.330Z,3.70
2023-09-04T00:44:51.340Z,3.83
2023-09-04T00:47:53.566Z,3.90
2023-09-04T00:50:55.369Z,3.85
2023-09-04T00:53:57.317Z,3.70
2023-09-04T00:56:59.046Z,4.25
2023-09-04T01:00:06.717Z,3.87
2023-09-04T01:03:09.298Z,3.92
2023-09-04T01:06:11.058Z,4.07
2023-09-04T01:09:12.867Z,3.80
2023-09-04T01:12:25.626Z,3.80
2023-09-04T01:15:28.958Z,3.80
2023-09-04T01:18:31.302Z,3.62
2023-09-04T01:21:39.639Z,3.85
2023-09-04T01:24:41.445Z,3.60
2023-09-04T01:27:50.080Z,3.78
2023-09-04T01:31:02.157Z,3.80
2023-09-04T01:34:11.141Z,4.15
2023-09-04T01:37:13.388Z,3.90
2023-09-04T01:40:15.189Z,4.15
2023-09-04T01:43:16.891Z,4.25
2023-09-04T01:46:18.737Z,4.10
2023-09-04T01:49:20.538Z,3.75
2023-09-04T01:52:22.246Z,4.12
2023-09-04T01:55:23.908Z,3.75
2023-09-04T01:58:26.183Z,3.58
2023-09-04T02:01:29.313Z,3.90
2023-09-04T02:04:33.156Z,3.50
2023-09-04T02:07:34.918Z,3.78
2023-09-04T02:10:36.863Z,3.80
2023-09-04T02:13:38.522Z,3.80
2023-09-04T02:16:40.195Z,3.78
2023-09-04T02:19:42.024Z,3.92
2023-09-04T02:22:43.818Z,4.12
2023-09-04T02:25:48.301Z,3.83
2023-09-04T02:28:50.007Z,4.00
2023-09-04T02:31:51.782Z,4.40
2023-09-04T02:34:53.700Z,3.47
2023-09-04T02:37:55.408Z,3.62
2023-09-04T02:40:57.335Z,3.78
2023-09-04T02:43:58.979Z,3.60
2023-09-04T02:47:00.666Z,3.80
2023-09-04T02:50:02.475Z,4.10
2023-09-04T02:53:04.459Z,3.87
2023-09-04T02:56:06.235Z,3.92
2023-09-04T02:59:07.904Z,3.78
2023-09-04T03:02:10.055Z,3.47
2023-09-04T03:05:12.086Z,3.42
2023-09-04T03:08:14.119Z,3.45
2023-09-04T03:11:15.904Z,4.25
2023-09-04T03:14:17.612Z,3.62
2023-09-04T03:17:19.569Z,3.50
2023-09-04T03:20:21.427Z,4.00
2023-09-04T03:23:23.145Z,3.30
2023-09-04T03:26:24.865Z,3.60
2023-09-04T03:29:27.454Z,3.80
2023-09-04T03:32:29.747Z,3.70
2023-09-04T03:35:31.440Z,3.42
2023-09-04T03:38:33.312Z,3.65
2023-09-04T03:41:35.038Z,4.10
2023-09-04T03:44:36.799Z,4.55
2023-09-04T03:47:38.534Z,3.75
2023-09-04T03:50:40.477Z,3.78
2023-09-04T03:53:42.440Z,3.90
2023-09-04T03:56:44.551Z,3.83
2023-09-04T03:59:46.226Z,4.30
2023-09-04T04:02:50.486Z,4.10
2023-09-04T04:05:52.369Z,4.37
2023-09-04T04:08:57.133Z,3.97
2023-09-04T04:11:59.002Z,3.95
2023-09-04T04:15:05.766Z,4.43
2023-09-04T04:18:09.611Z,4.30
2023-09-04T04:21:11.524Z,4.15
2023-09-04T04:24:13.801Z,4.07
2023-09-04T04:27:27.508Z,4.30
2023-09-04T04:30:41.385Z,4.50
2023-09-04T04:33:55.553Z,4.12
2023-09-04T04:37:09.758Z,4.20
2023-09-04T04:40:11.800Z,3.67
2023-09-04T04:43:25.570Z,3.92
2023-09-04T04:46:39.637Z,3.65
2023-09-04T04:49:53.511Z,3.90
2023-09-04T04:53:07.644Z,4.10
2023-09-04T04:56:30.702Z,3.80
2023-09-04T04:59:44.812Z,3.83
2023-09-04T05:02:58.729Z,3.87
2023-09-04T05:06:12.468Z,3.60
2023-09-04T05:09:27.292Z,3.80
2023-09-04T05:12:39.758Z,3.72
2023-09-04T05:15:53.614Z,3.70
2023-09-04T05:19:08.694Z,3.35
2023-09-04T05:22:22.691Z,3.40
2023-09-04T05:25:36.994Z,3.53
2023-09-04T05:28:49.818Z,3.42
2023-09-04T05:32:17.269Z,3.22
2023-09-04T05:35:33.766Z,3.70
2023-09-04T05:38:58.997Z,3.80
2023-09-04T05:49:00.129Z,3.22
2023-09-04T05:52:16.575Z,3.20
2023-09-04T05:55:18.361Z,3.35
2023-09-04T05:58:35.984Z,3.12
2023-09-04T06:01:49.482Z,3.40
2023-09-04T06:04:51.165Z,3.10
2023-09-04T06:07:52.916Z,3.00
2023-09-04T06:10:55.720Z,3.20
2023-09-04T06:13:57.365Z,3.25
2023-09-04T06:17:00.090Z,2.70
2023-09-04T06:20:01.943Z,2.80
2023-09-04T06:23:04.466Z,2.92
2023-09-04T06:26:06.276Z,2.80
2023-09-04T06:29:07.962Z,2.83
2023-09-04T06:32:09.701Z,2.67
2023-09-04T06:35:11.374Z,2.90
2023-09-04T06:38:14.076Z,2.90
2023-09-04T06:41:15.765Z,2.50
2023-09-04T06:44:20.354Z,2.30
2023-09-04T06:47:22.091Z,2.65
2023-09-04T06:50:23.761Z,2.25
2023-09-04T06:53:25.422Z,2.30
2023-09-04T06:56:27.082Z,2.37
2023-09-04T06:59:28.898Z,2.70
2023-09-04T07:02:30.630Z,2.37
2023-09-04T07:05:32.719Z,2.00
2023-09-04T07:08:34.539Z,2.75
2023-09-04T07:11:36.290Z,2.08
2023-09-04T07:14:39.425Z,1.90
2023-09-04T07:17:41.216Z,2.22
2023-09-04T07:20:43.009Z,1.92
2023-09-04T07:23:44.754Z,1.80
2023-09-04T07:26:46.497Z,2.42
2023-09-04T07:29:48.425Z,2.30
2023-09-04T07:32:50.298Z,1.98
2023-09-04T07:35:56.036Z,1.70
2023-09-04T07:38:57.916Z,1.77
2023-09-04T07:41:59.605Z,1.90
2023-09-04T07:45:01.339Z,2.00
2023-09-04T07:48:03.819Z,1.48
2023-09-04T07:51:13.670Z,1.67
2023-09-04T07:54:22.702Z,1.53
2023-09-04T07:57:24.621Z,1.62
2023-09-04T08:00:27.185Z,1.50
2023-09-04T08:03:29.155Z,1.52
2023-09-04T08:06:31.073Z,1.83
2023-09-04T08:09:32.768Z,1.60
2023-09-04T08:12:34.429Z,1.70
2023-09-04T08:15:36.198Z,2.10
2023-09-04T08:18:37.888Z,1.85
2023-09-04T08:21:39.935Z,1.80
2023-09-04T08:24:41.592Z,1.45
2023-09-04T08:27:43.248Z,1.58
2023-09-04T08:30:44.989Z,1.58
2023-09-04T08:33:46.717Z,1.70
2023-09-04T08:36:48.422Z,1.85
2023-09-04T08:39:50.271Z,1.73
2023-09-04T08:42:53.518Z,1.85
2023-09-04T08:45:55.524Z,1.60
2023-09-04T08:49:01.356Z,2.30
2023-09-04T08:52:03.363Z,1.60
2023-09-04T08:55:06.439Z,1.70
2023-09-04T08:58:08.486Z,2.03
2023-09-04T09:01:13.899Z,1.73
2023-09-04T09:04:18.190Z,1.90
2023-09-04T09:07:24.496Z,1.80
2023-09-04T09:10:26.498Z,1.70
2023-09-04T09:13:28.269Z,2.60
2023-09-04T09:16:29.975Z,1.83
2023-09-04T09:19:35.977Z,1.70
2023-09-04T09:22:37.657Z,1.70
2023-09-04T09:25:40.469Z,1.58
2023-09-04T09:28:45.780Z,1.60
2023-09-04T09:31:48.080Z,2.47
2023-09-04T09:34:55.320Z,2.12
2023-09-04T09:37:57.007Z,1.83
2023-09-04T09:40:59.586Z,2.05
2023-09-04T09:44:03.413Z,1.90
2023-09-04T09:47:14.387Z,1.90
2023-09-04T09:50:16.634Z,1.90
2023-09-04T09:53:20.398Z,1.77
2023-09-04T09:56:22.546Z,1.95
2023-09-04T09:59:24.707Z,1.90
2023-09-04T10:02:28.562Z,1.20
2023-09-04T10:05:31.992Z,1.75
2023-09-04T10:08:50.903Z,1.40
2023-09-04T10:12:03.751Z,1.65
2023-09-04T10:15:07.500Z,1.83
2023-09-04T10:18:15.503Z,2.05
2023-09-04T10:21:20.564Z,1.70
2023-09-04T10:24:31.430Z,1.87
2023-09-04T10:27:41.457Z,1.90
2023-09-04T10:30:45.449Z,2.15
2023-09-04T10:33:47.377Z,1.40
2023-09-04T10:36:49.702Z,1.62
2023-09-04T10:39:55.371Z,1.55
2023-09-04T10:43:05.008Z,1.70
2023-09-04T10:46:11.827Z,1.48
2023-09-04T10:49:31.334Z,2.17
2023-09-04T10:52:45.087Z,1.58
2023-09-04T10:56:15.551Z,1.85
2023-09-04T10:59:17.212Z,1.67
2023-09-04T11:02:29.074Z,1.83
2023-09-04T11:05:31.050Z,2.10
2023-09-04T11:08:34.439Z,2.03
2023-09-04T11:11:37.065Z,2.40
2023-09-04T11:14:49.811Z,2.08
2023-09-04T11:17:52.012Z,1.80
2023-09-04T11:20:55.986Z,1.80
2023-09-04T11:23:59.416Z,2.17
2023-09-04T11:27:01.064Z,2.10
2023-09-04T11:30:03.255Z,1.90
2023-09-04T11:33:05.642Z,1.70
2023-09-04T11:36:08.055Z,2.10
2023-09-04T11:39:14.082Z,1.73
2023-09-04T11:42:21.020Z,2.08
2023-09-04T11:45:25.908Z,2.00
2023-09-04T11:48:29.216Z,1.48
2023-09-04T11:51:32.838Z,1.83
2023-09-04T11:54:37.570Z,2.08
2023-09-04T11:57:39.353Z,1.62
2023-09-04T12:00:41.535Z,1.52
2023-09-04T12:03:43.348Z,1.70
2023-09-04T12:06:45.154Z,1.77
2023-09-04T12:09:47.001Z,1.40
2023-09-04T12:12:48.769Z,1.70
2023-09-04T12:15:50.466Z,1.75
2023-09-04T12:18:52.208Z,1.80
2023-09-04T12:21:53.870Z,1.87
2023-09-04T12:25:06.491Z,1.75
2023-09-04T12:28:10.985Z,1.95
2023-09-04T12:31:14.209Z,1.58
2023-09-04T12:34:16.590Z,1.52
2023-09-04T12:37:21.374Z,1.50
2023-09-04T12:40:23.038Z,2.08
2023-09-04T12:43:24.709Z,1.52
2023-09-04T12:46:26.350Z,1.80
2023-09-04T12:49:31.299Z,1.87
2023-09-04T12:52:35.203Z,1.98
2023-09-04T12:55:36.902Z,2.45
2023-09-04T12:58:38.547Z,2.05
2023-09-04T13:01:40.292Z,2.00
2023-09-04T13:04:42.067Z,2.05
2023-09-04T13:07:44.270Z,2.00
2023-09-04T13:10:45.942Z,2.40
2023-09-04T13:13:47.644Z,2.42
2023-09-04T13:16:49.296Z,1.98
2023-09-04T13:19:51.053Z,2.22
2023-09-04T13:22:53.008Z,2.10
2023-09-04T13:25:54.695Z,2.10
2023-09-04T13:28:56.422Z,2.20
2023-09-04T13:31:58.105Z,1.98
2023-09-04T13:34:59.790Z,1.98
2023-09-04T13:38:01.574Z,2.12
2023-09-04T13:41:03.979Z,2.15
2023-09-04T13:44:05.872Z,2.15
2023-09-04T13:47:07.554Z,2.22
2023-09-04T13:50:10.333Z,2.00
2023-09-04T13:53:12.006Z,2.22
2023-09-04T13:56:13.643Z,2.10
2023-09-04T13:59:15.310Z,2.00
2023-09-04T14:02:17.638Z,1.75
2023-09-04T14:05:19.424Z,1.80
2023-09-04T14:08:21.143Z,1.90
2023-09-04T14:11:22.842Z,2.12
2023-09-04T14:14:26.232Z,2.30
2023-09-04T14:17:27.959Z,2.10
2023-09-04T14:20:29.686Z,2.10
2023-09-04T14:23:31.353Z,1.80
2023-09-04T14:26:33.045Z,2.10
2023-09-04T14:29:34.699Z,2.60
2023-09-04T14:32:36.468Z,1.90
2023-09-04T14:35:38.435Z,1.92
2023-09-04T14:38:41.216Z,2.25
2023-09-04T14:41:42.879Z,2.20
2023-09-04T14:44:45.792Z,2.00
2023-09-04T14:47:47.710Z,1.83
2023-09-04T14:50:49.345Z,2.40
2023-09-04T14:53:53.173Z,1.70
2023-09-04T14:56:54.851Z,2.00
2023-09-04T14:59:57.423Z,1.83
2023-09-04T15:02:59.290Z,1.92
2023-09-04T15:06:01.835Z,2.08
2023-09-04T15:09:03.545Z,2.60
2023-09-04T15:12:06.375Z,2.15
2023-09-04T15:15:08.616Z,2.67
2023-09-04T15:18:10.402Z,2.05
2023-09-04T15:21:12.230Z,1.70
2023-09-04T15:24:14.197Z,2.65
2023-09-04T15:27:18.245Z,2.35
2023-09-04T15:30:20.271Z,2.45
2023-09-04T15:33:22.122Z,2.10
2023-09-04T15:36:23.824Z,1.90
2023-09-04T15:39:25.819Z,2.10
2023-09-04T15:42:27.687Z,1.92
2023-09-04T15:45:29.872Z,2.17
2023-09-04T15:48:31.723Z,2.08
2023-09-04T15:51:33.588Z,2.00
2023-09-04T15:54:35.279Z,2.28
2023-09-04T15:57:37.012Z,1.90
2023-09-04T16:00:39.182Z,2.40
2023-09-04T16:03:40.954Z,2.37
2023-09-04T16:06:43.034Z,2.20
2023-09-04T16:09:45.051Z,2.05
2023-09-04T16:12:46.888Z,2.03
2023-09-04T16:15:48.965Z,2.30
2023-09-04T16:18:51.030Z,2.12
2023-09-04T16:21:52.924Z,1.92
2023-09-04T16:24:58.674Z,2.30
2023-09-04T16:28:00.876Z,2.20
2023-09-04T16:31:03.064Z,2.10
2023-09-04T16:34:06.058Z,1.90
2023-09-04T16:37:07.772Z,1.80
2023-09-04T16:40:13.274Z,1.95
2023-09-04T16:43:15.360Z,1.87
2023-09-04T16:46:17.593Z,1.92
2023-09-04T16:49:19.297Z,1.70
2023-09-04T16:52:21.274Z,1.80
2023-09-04T16:55:23.705Z,1.80
2023-09-04T16:58:26.933Z,1.50
2023-09-04T17:01:29.636Z,2.28
2023-09-04T17:04:31.846Z,1.90
2023-09-04T17:07:34.974Z,1.70
2023-09-04T17:10:36.693Z,1.83
2023-09-04T17:13:38.435Z,2.05
2023-09-04T17:16:40.710Z,1.80
2023-09-04T17:19:42.600Z,2.10
2023-09-04T17:22:44.557Z,2.05
2023-09-04T17:25:47.900Z,2.22
2023-09-04T17:28:50.178Z,2.03
2023-09-04T17:31:55.250Z,2.28
2023-09-04T17:34:58.623Z,2.50
2023-09-04T17:38:01.286Z,2.17
2023-09-04T17:41:08.269Z,2.30
2023-09-04T17:44:10.462Z,1.87
2023-09-04T17:47:12.383Z,2.42
2023-09-04T17:50:14.404Z,2.05
2023-09-04T17:53:16.891Z,2.00
2023-09-04T17:56:20.840Z,2.17
2023-09-04T17:59:23.185Z,2.47
2023-09-04T18:02:25.785Z,2.20
2023-09-04T18:05:27.916Z,2.25
2023-09-04T18:08:31.456Z,2.35
2023-09-04T18:11:33.580Z,2.70
2023-09-04T18:14:35.814Z,2.28
2023-09-04T18:17:38.293Z,2.35
2023-09-04T18:20:40.678Z,2.17
2023-09-04T18:23:44.162Z,2.53
2023-09-04T18:26:46.233Z,2.78
2023-09-04T18:29:49.077Z,2.20
2023-09-04T18:32:51.868Z,2.50
2023-09-04T18:35:55.484Z,2.65
2023-09-04T18:38:58.073Z,2.50
2023-09-04T18:42:00.591Z,2.87
2023-09-04T18:45:05.302Z,3.37
2023-09-04T18:48:09.245Z,3.80
2023-09-04T18:51:11.683Z,7.28
2023-09-04T18:54:14.169Z,4.68
2023-09-04T18:57:19.302Z,5.32
2023-09-04T19:00:23.337Z,3.60
2023-09-04T19:03:26.510Z,3.12
2023-09-04T19:06:31.487Z,4.25
2023-09-04T19:09:34.471Z,3.03
2023-09-04T19:12:36.962Z,2.72
2023-09-04T19:15:38.737Z,2.55
2023-09-04T19:18:41.604Z,3.22
2023-09-04T19:21:45.167Z,2.67
2023-09-04T19:24:50.100Z,2.50
2023-09-04T19:27:53.695Z,2.30
2023-09-04T19:30:56.384Z,2.47
2023-09-04T19:34:00.519Z,2.67
2023-09-04T19:37:04.444Z,2.40
2023-09-04T19:40:08.679Z,2.37
2023-09-04T19:43:11.253Z,2.30
2023-09-04T19:46:15.011Z,2.55
2023-09-04T19:49:17.207Z,2.42
2023-09-04T19:52:19.323Z,2.33
2023-09-04T19:55:21.488Z,2.40
2023-09-04T19:58:23.715Z,2.60
2023-09-04T20:01:27.584Z,2.55
2023-09-04T20:04:29.827Z,2.90
2023-09-04T20:07:32.978Z,2.53
2023-09-04T20:10:36.847Z,2.72
2023-09-04T20:13:39.144Z,3.10
2023-09-04T20:16:41.605Z,2.90
2023-09-04T20:19:43.579Z,2.42
2023-09-04T20:22:46.051Z,2.30
2023-09-04T20:25:48.543Z,2.25
2023-09-04T20:28:55.346Z,2.37
2023-09-04T20:31:58.994Z,2.30
2023-09-04T20:35:01.076Z,2.50
2023-09-04T20:38:02.826Z,2.70
2023-09-04T20:41:05.113Z,2.42
2023-09-04T20:44:07.401Z,2.67
2023-09-04T20:47:09.263Z,2.30
2023-09-04T20:50:10.991Z,2.35
2023-09-04T20:53:15.134Z,2.60
2023-09-04T20:56:17.276Z,2.12
2023-09-04T20:59:19.092Z,2.53
2023-09-04T21:02:20.982Z,2.60
2023-09-04T21:05:22.704Z,2.65
2023-09-04T21:08:24.296Z,2.25
2023-09-04T21:11:25.951Z,2.62
2023-09-04T21:14:46.193Z,2.65
2023-09-04T21:18:06.706Z,2.67
2023-09-04T21:21:27.113Z,2.53
2023-09-04T21:24:47.282Z,2.50
2023-09-04T21:28:07.671Z,2.55
2023-09-04T21:31:27.990Z,2.50
2023-09-04T21:34:48.326Z,2.70
2023-09-04T21:38:08.520Z,2.80
2023-09-04T21:41:28.908Z,2.72
2023-09-04T21:44:49.044Z,2.47
2023-09-04T21:48:09.363Z,2.70
2023-09-04T21:51:29.935Z,2.50
2023-09-04T21:54:50.174Z,2.72
2023-09-04T21:58:10.441Z,2.65
2023-09-04T22:01:30.935Z,2.65
2023-09-04T22:04:51.501Z,3.15
2023-09-04T22:08:12.008Z,2.90
2023-09-04T22:11:32.099Z,2.90
2023-09-04T22:14:52.437Z,2.75
2023-09-04T22:18:13.178Z,2.62
2023-09-04T22:21:33.949Z,2.67
2023-09-04T22:24:54.406Z,2.55
2023-09-04T22:28:14.624Z,2.87
2023-09-04T22:31:34.637Z,2.60
2023-09-04T22:34:54.970Z,2.42
2023-09-04T22:38:15.427Z,2.75
2023-09-04T22:41:35.554Z,2.83
2023-09-04T22:44:55.818Z,2.65
2023-09-04T22:48:16.189Z,2.80
2023-09-04T22:51:36.736Z,2.65
2023-09-04T22:54:56.857Z,2.40
2023-09-04T22:58:16.948Z,2.50
2023-09-04T23:01:37.426Z,2.78
2023-09-04T23:04:57.636Z,2.42
2023-09-04T23:08:18.028Z,2.60
2023-09-04T23:11:38.425Z,2.90
2023-09-04T23:14:58.708Z,2.40
2023-09-04T23:18:18.956Z,2.67
2023-09-04T23:21:20.586Z,2.90
2023-09-04T23:24:23.118Z,2.62
2023-09-04T23:27:27.789Z,2.40
2023-09-04T23:30:37.450Z,2.60
2023-09-04T23:33:46.619Z,2.67
2023-09-04T23:36:48.624Z,2.40
2023-09-04T23:40:09.493Z,2.67
2023-09-04T23:43:29.600Z,2.92
2023-09-04T23:46:32.488Z,2.90
2023-09-04T23:49:35.085Z,2.60
2023-09-04T23:52:37.282Z,3.25
2023-09-04T23:55:38.965Z,2.75
2023-09-04T23:58:45.247Z,2.80
